Terminal Aerodrome Forecast
Issued by NWS

Home | Current Version | Previous Version | Text Only | Print | Product List | Glossary On
Versions: 1 2 3 4 5 6 7 8 9 10 11 12 13 14 15 16
000
FTUS44 KMAF 210500
TAFPEQ
TAF
KPEQ 210526Z 2106/2206 VRB03KT P6SM FEW250
     FM211000 VRB02KT 5SM BR OVC020
      TEMPO 2110/2114 2SM BR BKN010
     FM211500 24005KT P6SM SCT020
     FM211800 26012G22KT P6SM FEW250
     FM220000 25008KT P6SM SKC=

USA.gov is the U.S. government's official web portal to all federal, state and local government web resources and services.